createdAt,value
2018-02-15T00:01:48.778Z,30.58
2018-02-15T00:04:17.185Z,32.40
2018-02-15T00:06:45.558Z,30.58
2018-02-15T00:09:14.293Z,30.88
2018-02-15T00:11:42.661Z,32.35
2018-02-15T00:14:11.028Z,30.55
2018-02-15T00:16:39.391Z,25.62
2018-02-15T00:19:07.766Z,29.85
2018-02-15T00:21:36.821Z,35.72
2018-02-15T00:24:05.187Z,31.80
2018-02-15T00:26:33.558Z,31.73
2018-02-15T00:29:01.944Z,30.62
2018-02-15T00:31:30.298Z,33.08
2018-02-15T00:33:58.719Z,34.90
2018-02-15T00:36:27.085Z,30.05
2018-02-15T00:38:55.647Z,30.75
2018-02-15T00:41:24.026Z,31.10
2018-02-15T00:43:52.386Z,32.42
2018-02-15T00:46:20.779Z,35.80
2018-02-15T00:48:49.153Z,34.55
2018-02-15T00:51:17.680Z,44.45
2018-02-15T00:53:46.083Z,33.88
2018-02-15T00:56:14.610Z,31.70
2018-02-15T00:58:42.963Z,33.30
2018-02-15T01:01:11.341Z,26.95
2018-02-15T01:03:39.709Z,34.38
2018-02-15T01:06:08.105Z,31.17
2018-02-15T01:08:36.522Z,36.25
2018-02-15T01:11:04.891Z,31.90
2018-02-15T01:13:33.275Z,33.67
2018-02-15T01:16:01.630Z,33.65
2018-02-15T01:18:29.996Z,33.58
2018-02-15T01:20:58.403Z,29.90
2018-02-15T01:23:26.773Z,27.58
2018-02-15T01:25:55.149Z,34.22
2018-02-15T01:28:23.518Z,35.70
2018-02-15T01:30:51.951Z,24.95
2018-02-15T01:33:20.327Z,35.95
2018-02-15T01:35:48.806Z,29.58
2018-02-15T01:38:17.238Z,31.67
2018-02-15T01:40:45.610Z,29.75
2018-02-15T01:43:14.148Z,35.10
2018-02-15T01:45:42.505Z,33.50
2018-02-15T01:48:10.892Z,33.15
2018-02-15T01:50:39.314Z,31.23
2018-02-15T01:53:07.761Z,29.25
2018-02-15T01:55:36.126Z,39.13
2018-02-15T01:58:04.498Z,34.47
2018-02-15T02:00:32.923Z,30.42
2018-02-15T02:03:01.287Z,29.95
2018-02-15T02:05:29.692Z,33.65
2018-02-15T02:07:58.084Z,33.17
2018-02-15T02:10:26.480Z,29.73
2018-02-15T02:12:55.001Z,30.42
2018-02-15T02:15:23.364Z,33.63
2018-02-15T02:17:51.793Z,36.20
2018-02-15T02:20:20.151Z,25.37
2018-02-15T02:22:48.515Z,36.95
2018-02-15T02:25:16.977Z,30.17
2018-02-15T02:27:45.345Z,31.60
2018-02-15T02:30:13.816Z,27.45
2018-02-15T02:32:42.241Z,36.28
2018-02-15T02:35:10.633Z,33.67
2018-02-15T02:37:39.026Z,31.12
2018-02-15T02:40:07.395Z,33.55
2018-02-15T02:42:35.813Z,32.65
2018-02-15T02:45:04.315Z,29.45
2018-02-15T02:47:32.910Z,31.83
2018-02-15T02:50:01.283Z,33.05
2018-02-15T02:52:29.655Z,28.92
2018-02-15T02:54:58.059Z,34.67
2018-02-15T02:57:26.453Z,34.53
2018-02-15T02:59:54.906Z,41.28
2018-02-15T03:02:23.291Z,37.72
2018-02-15T03:04:52.690Z,31.27
2018-02-15T03:07:21.207Z,32.72
2018-02-15T03:09:49.583Z,31.55
2018-02-15T03:12:17.990Z,32.88
2018-02-15T03:14:46.473Z,34.10
2018-02-15T03:17:14.920Z,33.90
2018-02-15T03:19:43.306Z,36.90
2018-02-15T03:22:11.720Z,33.42
2018-02-15T03:24:40.092Z,40.67
2018-02-15T03:27:08.466Z,30.95
2018-02-15T03:29:36.977Z,36.17
2018-02-15T03:32:05.374Z,33.42
2018-02-15T03:34:33.775Z,35.28
2018-02-15T03:37:02.187Z,37.40
2018-02-15T03:39:30.562Z,33.00
2018-02-15T03:41:58.967Z,36.83
2018-02-15T03:44:27.348Z,36.58
2018-02-15T03:46:55.823Z,34.97
2018-02-15T03:49:24.216Z,30.33
2018-02-15T03:51:52.721Z,29.58
2018-02-15T03:54:21.138Z,34.47
2018-02-15T03:56:49.542Z,36.67
2018-02-15T03:59:17.909Z,39.45
2018-02-15T04:01:46.279Z,28.15
2018-02-15T04:04:14.643Z,28.58
2018-02-15T04:06:43.094Z,30.60
2018-02-15T04:09:11.471Z,36.67
2018-02-15T04:11:39.836Z,32.03
2018-02-15T04:14:08.314Z,34.90
2018-02-15T04:16:36.704Z,40.60
2018-02-15T04:19:05.114Z,34.42
2018-02-15T04:21:33.479Z,37.67
2018-02-15T04:24:01.861Z,36.67
2018-02-15T04:26:30.367Z,41.55
2018-02-15T04:28:58.814Z,34.88
2018-02-15T04:31:27.231Z,31.98
2018-02-15T04:33:55.641Z,33.60
2018-02-15T04:36:24.038Z,33.65
2018-02-15T04:38:52.400Z,31.08
2018-02-15T04:41:20.806Z,30.23
2018-02-15T04:43:49.171Z,32.10
2018-02-15T04:46:17.655Z,33.05
2018-02-15T04:48:46.030Z,34.97
2018-02-15T04:51:14.472Z,32.60
2018-02-15T04:53:42.850Z,34.13
2018-02-15T04:56:11.218Z,32.60
2018-02-15T04:58:39.623Z,34.67
2018-02-15T05:01:08.002Z,37.70
2018-02-15T05:03:36.408Z,36.35
2018-02-15T05:06:04.779Z,34.60
2018-02-15T05:08:33.153Z,32.03
2018-02-15T05:11:01.530Z,33.42
2018-02-15T05:13:29.951Z,31.55
2018-02-15T05:15:58.367Z,30.65
2018-02-15T05:18:26.869Z,33.97
2018-02-15T05:20:55.232Z,31.37
2018-02-15T05:23:23.602Z,35.35
2018-02-15T05:25:51.987Z,31.92
2018-02-15T05:28:20.379Z,31.42
2018-02-15T05:30:48.795Z,41.50
2018-02-15T05:33:17.156Z,37.58
2018-02-15T05:35:45.528Z,37.05
2018-02-15T05:38:14.013Z,34.88
2018-02-15T05:40:42.374Z,38.58
2018-02-15T05:43:10.893Z,36.40
2018-02-15T05:45:39.300Z,39.22
2018-02-15T05:48:07.733Z,35.28
2018-02-15T05:50:47.015Z,34.35
2018-02-15T05:53:15.437Z,41.65
2018-02-15T05:55:43.832Z,36.70
2018-02-15T05:58:12.203Z,35.40
2018-02-15T06:00:40.707Z,40.72
2018-02-15T06:03:09.244Z,42.25
2018-02-15T06:05:37.619Z,43.65
2018-02-15T06:08:05.985Z,45.00
2018-02-15T06:10:34.384Z,40.35
2018-02-15T06:13:02.764Z,42.22
2018-02-15T06:15:31.192Z,44.88
2018-02-15T06:17:59.574Z,41.30
2018-02-15T06:20:28.072Z,42.28
2018-02-15T06:22:56.448Z,41.80
2018-02-15T06:25:24.891Z,43.53
2018-02-15T06:27:53.314Z,40.85
2018-02-15T06:30:21.823Z,38.97
2018-02-15T06:32:50.257Z,37.70
2018-02-15T06:35:18.813Z,41.05
2018-02-15T06:37:47.371Z,40.35
2018-02-15T06:40:15.803Z,39.67
2018-02-15T06:42:44.261Z,40.75
2018-02-15T06:45:12.683Z,46.05
2018-02-15T06:47:41.071Z,47.97
2018-02-15T06:50:09.560Z,50.17
2018-02-15T06:52:38.101Z,52.10
2018-02-15T06:55:06.632Z,45.00
2018-02-15T06:57:35.115Z,48.10
2018-02-15T07:00:03.531Z,50.03
2018-02-15T07:02:31.928Z,50.08
2018-02-15T07:05:00.304Z,46.50
2018-02-15T07:07:28.781Z,45.85
2018-02-15T07:09:57.146Z,49.70
2018-02-15T07:12:25.528Z,52.28
2018-02-15T07:14:53.981Z,57.92
2018-02-15T07:17:22.412Z,43.83
2018-02-15T07:19:50.869Z,61.78
2018-02-15T07:22:19.296Z,48.25
2018-02-15T07:24:47.626Z,54.38
2018-02-15T07:27:15.999Z,55.33
2018-02-15T07:29:44.365Z,53.53
2018-02-15T07:32:13.048Z,57.95
2018-02-15T07:34:41.515Z,50.58
2018-02-15T07:37:09.966Z,57.80
2018-02-15T07:39:38.349Z,57.40
2018-02-15T07:42:06.848Z,49.67
2018-02-15T07:44:35.215Z,54.75
2018-02-15T07:47:03.673Z,51.03
2018-02-15T07:49:32.369Z,53.72
2018-02-15T07:52:00.756Z,53.92
2018-02-15T07:54:29.225Z,49.83
2018-02-15T07:56:57.901Z,54.95
2018-02-15T07:59:26.285Z,56.90
2018-02-15T08:01:54.747Z,61.92
2018-02-15T08:04:23.116Z,46.60
2018-02-15T08:06:51.579Z,52.50
2018-02-15T08:09:19.951Z,46.08
2018-02-15T08:11:48.337Z,49.90
2018-02-15T08:14:16.773Z,53.05
2018-02-15T08:16:45.143Z,56.17
2018-02-15T08:19:13.547Z,45.67
2018-02-15T08:21:41.927Z,45.10
2018-02-15T08:24:10.392Z,52.30
2018-02-15T08:26:38.832Z,48.50
2018-02-15T08:29:07.325Z,45.25
2018-02-15T08:31:35.849Z,46.45
2018-02-15T08:34:04.332Z,45.65
2018-02-15T08:36:32.772Z,43.40
2018-02-15T08:39:01.161Z,40.90
2018-02-15T08:41:29.581Z,48.40
2018-02-15T08:43:57.949Z,43.33
2018-02-15T08:46:26.315Z,43.22
2018-02-15T08:48:54.772Z,39.88
2018-02-15T08:51:23.241Z,37.13
2018-02-15T08:53:51.632Z,40.08
2018-02-15T08:56:19.998Z,43.00
2018-02-15T08:58:48.362Z,36.38
2018-02-15T09:01:16.737Z,37.45
2018-02-15T09:03:45.117Z,37.22
2018-02-15T09:06:13.502Z,43.65
2018-02-15T09:08:41.900Z,38.28
2018-02-15T09:11:10.352Z,37.25
2018-02-15T09:13:38.733Z,37.90
2018-02-15T09:16:07.144Z,32.00
2018-02-15T09:18:35.540Z,38.42
2018-02-15T09:21:04.026Z,33.92
2018-02-15T09:23:32.559Z,32.47
2018-02-15T09:26:00.990Z,33.03
2018-02-15T09:28:29.757Z,33.03
2018-02-15T09:30:58.533Z,33.33
2018-02-15T09:33:27.085Z,38.15
2018-02-15T09:35:55.575Z,39.10
2018-02-15T09:38:25.133Z,35.00
2018-02-15T09:40:53.530Z,37.58
2018-02-15T09:43:21.916Z,42.42
2018-02-15T09:45:50.294Z,38.03
2018-02-15T09:48:18.737Z,35.72
2018-02-15T09:50:47.497Z,37.47
2018-02-15T09:53:16.051Z,38.20
2018-02-15T09:55:44.475Z,36.17
2018-02-15T09:58:13.097Z,32.33
2018-02-15T10:00:41.924Z,37.92
2018-02-15T10:03:11.035Z,30.35
2018-02-15T10:05:39.857Z,35.38
2018-02-15T10:08:08.563Z,35.85
2018-02-15T10:10:37.051Z,38.92
2018-02-15T10:13:05.647Z,35.13
2018-02-15T10:15:34.054Z,33.22
2018-02-15T10:18:02.438Z,36.47
2018-02-15T10:20:30.808Z,38.22
2018-02-15T10:22:59.185Z,32.58
2018-02-15T10:25:27.555Z,33.90
2018-02-15T10:27:55.921Z,36.50
2018-02-15T10:30:24.400Z,36.00
2018-02-15T10:32:53.207Z,37.28
2018-02-15T10:35:21.752Z,33.08
2018-02-15T10:37:50.131Z,29.30
2018-02-15T10:40:18.568Z,35.42
2018-02-15T10:42:46.959Z,30.20
2018-02-15T10:45:15.357Z,29.75
2018-02-15T10:47:43.830Z,25.48
2018-02-15T10:50:12.319Z,30.92
2018-02-15T10:52:40.697Z,28.52
2018-02-15T10:55:09.067Z,28.75
2018-02-15T10:57:37.430Z,26.58
2018-02-15T11:00:05.806Z,26.70
2018-02-15T11:02:34.202Z,24.35
2018-02-15T11:05:08.133Z,24.50
2018-02-15T11:07:36.497Z,22.05
2018-02-15T11:10:04.864Z,21.80
2018-02-15T11:12:33.248Z,24.20
2018-02-15T11:15:01.705Z,25.40
2018-02-15T11:17:30.074Z,21.00
2018-02-15T11:19:58.472Z,23.45
2018-02-15T11:22:26.836Z,25.52
2018-02-15T11:24:55.221Z,23.65
2018-02-15T11:27:23.604Z,26.15
2018-02-15T11:29:52.099Z,20.90
2018-02-15T11:32:23.418Z,23.77
2018-02-15T11:34:52.084Z,25.02
2018-02-15T11:37:20.477Z,19.25
2018-02-15T11:39:48.838Z,21.02
2018-02-15T11:42:17.203Z,18.85
2018-02-15T11:44:45.685Z,17.25
2018-02-15T11:47:14.154Z,17.20
2018-02-15T11:49:42.613Z,18.10
2018-02-15T11:52:10.976Z,17.20
2018-02-15T11:54:39.363Z,17.17
2018-02-15T11:57:07.734Z,16.37
2018-02-15T11:59:36.525Z,15.15
2018-02-15T12:02:04.902Z,12.00
2018-02-15T12:04:33.294Z,12.20
2018-02-15T12:07:01.786Z,10.07
2018-02-15T12:09:30.185Z,8.98
2018-02-15T12:11:58.633Z,10.68
2018-02-15T12:14:27.003Z,10.95
2018-02-15T12:16:55.416Z,13.07
2018-02-15T12:19:24.493Z,11.45
2018-02-15T12:21:52.903Z,10.60
2018-02-15T12:24:21.330Z,8.02
2018-02-15T12:26:49.706Z,6.90
2018-02-15T12:29:18.095Z,10.20
2018-02-15T12:31:46.490Z,8.52
2018-02-15T12:34:14.989Z,10.80
2018-02-15T12:36:43.393Z,8.27
2018-02-15T12:39:11.749Z,9.27
2018-02-15T12:41:40.189Z,9.63
2018-02-15T12:44:08.555Z,11.23
2018-02-15T12:46:37.258Z,8.70
2018-02-15T12:49:05.666Z,11.32
2018-02-15T12:51:34.045Z,10.07
2018-02-15T12:54:02.502Z,7.85
2018-02-15T12:56:30.868Z,10.48
2018-02-15T12:58:59.224Z,6.97
2018-02-15T13:01:27.602Z,7.68
2018-02-15T13:03:55.972Z,7.70
2018-02-15T13:06:24.442Z,8.60
2018-02-15T13:08:52.875Z,8.43
2018-02-15T13:11:21.348Z,7.78
2018-02-15T13:13:49.736Z,7.87
2018-02-15T13:16:29.915Z,11.25
2018-02-15T13:19:09.961Z,9.90
2018-02-15T13:21:38.333Z,6.72
2018-02-15T13:24:06.780Z,6.60
2018-02-15T13:26:35.164Z,6.07
2018-02-15T13:29:03.536Z,7.25
2018-02-15T13:31:32.006Z,6.10
2018-02-15T13:34:00.409Z,6.37
2018-02-15T13:36:28.838Z,7.70
2018-02-15T13:38:57.199Z,6.43
2018-02-15T13:41:25.559Z,8.07
2018-02-15T13:43:53.916Z,10.13
2018-02-15T13:46:22.273Z,6.17
2018-02-15T13:48:50.642Z,7.00
2018-02-15T13:51:18.981Z,7.07
2018-02-15T13:53:47.421Z,5.97
2018-02-15T13:56:15.794Z,6.62
2018-02-15T13:58:44.175Z,8.20
2018-02-15T14:01:12.551Z,7.30
2018-02-15T14:03:40.920Z,5.68
2018-02-15T14:06:09.357Z,8.90
2018-02-15T14:08:38.786Z,9.00
2018-02-15T14:11:07.156Z,11.73
2018-02-15T14:13:35.547Z,5.75
2018-02-15T14:16:04.144Z,7.53
2018-02-15T14:18:32.604Z,5.57
2018-02-15T14:21:01.079Z,7.00
2018-02-15T14:23:29.473Z,10.13
2018-02-15T14:25:57.906Z,6.75
2018-02-15T14:28:26.266Z,6.37
2018-02-15T14:30:54.722Z,8.47
2018-02-15T14:33:23.093Z,11.05
2018-02-15T14:35:51.455Z,5.95
2018-02-15T14:38:19.896Z,7.83
2018-02-15T14:40:48.324Z,8.90
2018-02-15T14:43:27.389Z,5.80
2018-02-15T14:45:55.867Z,6.30
2018-02-15T14:48:24.243Z,6.65
2018-02-15T14:50:54.430Z,6.22
2018-02-15T14:53:22.905Z,6.65
2018-02-15T14:55:51.363Z,8.23
2018-02-15T14:58:19.737Z,9.40
2018-02-15T15:00:48.130Z,8.77
2018-02-15T15:03:16.495Z,11.20
2018-02-15T15:05:44.871Z,8.23
2018-02-15T15:08:13.311Z,8.03
2018-02-15T15:10:41.678Z,8.03
2018-02-15T15:13:10.183Z,11.60
2018-02-15T15:15:38.554Z,7.20
2018-02-15T15:18:07.023Z,8.18
2018-02-15T15:20:35.494Z,4.60
2018-02-15T15:23:03.884Z,4.90
2018-02-15T15:25:32.290Z,11.60
2018-02-15T15:28:00.770Z,2.67
2018-02-15T15:30:29.246Z,2.57
2018-02-15T15:32:57.598Z,2.33
2018-02-15T15:35:25.996Z,2.73
2018-02-15T15:37:54.374Z,2.50
2018-02-15T15:40:22.722Z,2.30
2018-02-15T15:42:51.303Z,3.07
2018-02-15T15:45:19.678Z,1.53
2018-02-15T15:47:48.155Z,2.33
2018-02-15T15:50:16.563Z,6.10
2018-02-15T15:52:45.033Z,4.70
2018-02-15T15:55:13.540Z,5.67
2018-02-15T15:57:41.903Z,2.20
2018-02-15T16:00:10.265Z,6.13
2018-02-15T16:02:38.650Z,3.50
2018-02-15T16:05:07.127Z,3.80
2018-02-15T16:07:35.588Z,2.83
2018-02-15T16:10:03.948Z,2.63
2018-02-15T16:12:32.415Z,6.93
2018-02-15T16:15:00.784Z,5.53
2018-02-15T16:17:29.234Z,5.10
2018-02-15T16:19:57.695Z,5.43
2018-02-15T16:22:27.129Z,8.77
2018-02-15T16:24:56.536Z,4.50
2018-02-15T16:27:25.282Z,8.03
2018-02-15T16:29:53.688Z,7.60
2018-02-15T16:32:22.039Z,3.40
2018-02-15T16:34:50.439Z,5.70
2018-02-15T16:37:18.923Z,14.47
2018-02-15T16:39:47.280Z,6.07
2018-02-15T16:42:15.803Z,8.07
2018-02-15T16:44:44.201Z,6.60
2018-02-15T16:47:12.567Z,4.73
2018-02-15T16:49:40.918Z,5.70
2018-02-15T16:52:09.307Z,4.53
2018-02-15T16:54:37.743Z,5.45
2018-02-15T16:57:06.090Z,9.53
2018-02-15T16:59:34.455Z,8.23
2018-02-15T17:02:03.209Z,11.20
2018-02-15T17:04:31.718Z,11.20
2018-02-15T17:07:00.200Z,8.23
2018-02-15T17:09:28.676Z,10.83
2018-02-15T17:11:57.045Z,11.80
2018-02-15T17:14:25.412Z,14.70
2018-02-15T17:16:53.799Z,11.25
2018-02-15T17:19:22.338Z,10.33
2018-02-15T17:21:50.802Z,9.97
2018-02-15T17:24:19.197Z,8.30
2018-02-15T17:26:47.693Z,6.70
2018-02-15T17:29:16.079Z,12.17
2018-02-15T17:31:44.630Z,8.53
2018-02-15T17:34:13.938Z,7.27
2018-02-15T17:36:42.332Z,10.93
2018-02-15T17:39:10.693Z,12.57
2018-02-15T17:41:39.068Z,11.13
2018-02-15T17:44:07.528Z,11.00
2018-02-15T17:46:35.878Z,6.63
2018-02-15T17:49:04.235Z,10.00
2018-02-15T17:51:32.585Z,10.97
2018-02-15T17:54:00.948Z,12.00
2018-02-15T17:56:29.388Z,18.30
2018-02-15T17:58:57.869Z,18.40
2018-02-15T18:01:26.227Z,22.00
2018-02-15T18:03:54.752Z,13.70
2018-02-15T18:06:23.108Z,13.17
2018-02-15T18:08:52.380Z,16.43
2018-02-15T18:11:20.776Z,12.43
2018-02-15T18:13:49.165Z,16.27
2018-02-15T18:16:17.560Z,14.20
2018-02-15T18:18:45.938Z,16.80
2018-02-15T18:21:14.489Z,14.90
2018-02-15T18:23:42.872Z,14.00
2018-02-15T18:26:11.234Z,11.77
2018-02-15T18:28:39.626Z,15.13
2018-02-15T18:31:07.993Z,13.00
2018-02-15T18:33:36.504Z,16.80
2018-02-15T18:36:04.865Z,17.60
2018-02-15T18:38:33.243Z,16.70
2018-02-15T18:41:01.713Z,15.13
2018-02-15T18:43:30.403Z,18.23
2018-02-15T18:45:58.956Z,15.80
2018-02-15T18:48:27.318Z,16.47
2018-02-15T18:50:55.755Z,19.27
2018-02-15T18:53:24.116Z,15.67
2018-02-15T18:55:52.485Z,26.60
2018-02-15T18:58:21.269Z,23.83
2018-02-15T19:00:49.701Z,24.40
2018-02-15T19:03:18.084Z,25.27
2018-02-15T19:05:46.467Z,23.30
2018-02-15T19:08:14.876Z,20.70
2018-02-15T19:10:43.543Z,17.60
2018-02-15T19:16:07.207Z,22.90
2018-02-15T19:18:35.572Z,21.93
2018-02-15T19:21:04.044Z,26.47
2018-02-15T19:23:32.510Z,25.80
2018-02-15T19:26:00.955Z,23.57
2018-02-15T19:28:29.330Z,35.23
2018-02-15T19:30:57.715Z,20.73
2018-02-15T19:33:26.209Z,22.90
2018-02-15T19:35:54.772Z,22.67
2018-02-15T19:38:23.161Z,26.90
2018-02-15T19:40:51.576Z,27.47
2018-02-15T19:43:19.974Z,25.87
2018-02-15T19:45:48.481Z,21.97
2018-02-15T19:48:16.854Z,27.80
2018-02-15T19:50:45.270Z,27.97
2018-02-15T19:53:13.716Z,28.00
2018-02-15T19:55:42.206Z,28.30
2018-02-15T19:58:10.713Z,27.40
2018-02-15T20:00:39.110Z,25.47
2018-02-15T20:03:07.532Z,26.87
2018-02-15T20:05:35.940Z,32.37
2018-02-15T20:08:04.429Z,29.83
2018-02-15T20:10:32.946Z,25.90
2018-02-15T20:13:01.335Z,32.87
2018-02-15T20:18:27.009Z,28.43
2018-02-15T20:20:55.479Z,31.20
2018-02-15T20:23:23.920Z,25.00
2018-02-15T20:25:58.080Z,30.80
2018-02-15T20:28:26.971Z,29.10
2018-02-15T20:30:55.420Z,27.20
2018-02-15T20:33:23.810Z,29.27
2018-02-15T20:35:52.199Z,25.10
2018-02-15T20:38:26.371Z,23.03
2018-02-15T20:40:54.787Z,20.93
2018-02-15T20:43:23.189Z,19.23
2018-02-15T20:45:51.598Z,18.10
2018-02-15T20:48:20.134Z,22.83
2018-02-15T20:50:54.374Z,23.33
2018-02-15T20:53:28.527Z,23.57
2018-02-15T20:55:56.937Z,28.63
2018-02-15T20:58:25.466Z,26.27
2018-02-15T21:00:53.952Z,33.33
2018-02-15T21:03:22.389Z,22.20
2018-02-15T21:05:50.808Z,24.90
2018-02-15T21:08:19.298Z,26.50
2018-02-15T21:10:47.718Z,31.37
2018-02-15T21:13:16.186Z,23.67
2018-02-15T21:15:44.598Z,34.63
2018-02-15T21:18:13.034Z,27.87
2018-02-15T21:20:41.468Z,33.23
2018-02-15T21:23:09.887Z,38.00
2018-02-15T21:25:38.355Z,31.43
2018-02-15T21:28:06.764Z,37.73
2018-02-15T21:30:35.307Z,31.50
2018-02-15T21:33:03.712Z,35.10
2018-02-15T21:35:32.284Z,38.53
2018-02-15T21:38:00.691Z,28.90
2018-02-15T21:40:29.127Z,34.43
2018-02-15T21:42:57.545Z,51.00
2018-02-15T21:45:25.922Z,30.90
2018-02-15T21:47:54.513Z,30.20
2018-02-15T21:50:23.049Z,37.67
2018-02-15T21:52:51.480Z,35.37
2018-02-15T21:55:20.264Z,39.50
2018-02-15T21:57:51.398Z,33.43
2018-02-15T22:00:20.031Z,36.00
2018-02-15T22:02:48.463Z,36.33
2018-02-15T22:05:16.971Z,41.40
2018-02-15T22:07:45.435Z,41.63
2018-02-15T22:10:13.886Z,34.37
2018-02-15T22:12:42.347Z,29.10
2018-02-15T22:15:10.966Z,30.73
2018-02-15T22:17:39.453Z,38.10
2018-02-15T22:20:07.957Z,50.80
2018-02-15T22:22:36.675Z,37.40
2018-02-15T22:25:05.148Z,34.20
2018-02-15T22:27:33.927Z,32.97
2018-02-15T22:30:02.384Z,37.17
2018-02-15T22:32:30.887Z,36.50
2018-02-15T22:34:59.342Z,34.53
2018-02-15T22:37:27.769Z,40.10
2018-02-15T22:39:56.155Z,47.07
2018-02-15T22:42:24.611Z,32.50
2018-02-15T22:44:53.020Z,40.33
2018-02-15T22:47:21.415Z,36.80
2018-02-15T22:49:49.805Z,44.67
2018-02-15T22:52:18.291Z,49.38
2018-02-15T22:54:46.837Z,40.30
2018-02-15T22:57:15.249Z,43.10
2018-02-15T22:59:44.248Z,43.63
2018-02-15T23:02:13.466Z,37.60
2018-02-15T23:04:41.873Z,45.60
2018-02-15T23:07:10.363Z,36.60
2018-02-15T23:09:38.761Z,41.20
2018-02-15T23:12:07.139Z,40.23
2018-02-15T23:14:36.444Z,39.00
2018-02-15T23:17:04.852Z,40.33
2018-02-15T23:19:33.263Z,39.03
2018-02-15T23:22:01.687Z,50.83
2018-02-15T23:24:30.143Z,39.55
2018-02-15T23:26:58.544Z,46.88
2018-02-15T23:29:26.948Z,45.47
2018-02-15T23:31:55.340Z,42.53
2018-02-15T23:34:23.702Z,39.23
2018-02-15T23:36:52.150Z,52.00
2018-02-15T23:39:20.518Z,45.40
2018-02-15T23:41:49.007Z,53.90
2018-02-15T23:44:17.382Z,36.40
2018-02-15T23:46:45.772Z,48.78
2018-02-15T23:49:14.191Z,52.58
2018-02-15T23:51:42.602Z,46.57
2018-02-15T23:54:11.060Z,46.35
2018-02-15T23:56:39.543Z,41.83
2018-02-15T23:59:08.011Z,37.67
